Detall de PIREP

Printer-friendly versionPDF version

[2017/10/08 09:26:00]
Flight IATA:CT3216
Pilot Number:012
Company ICAO:CAT
Aircraft Type:B738/F
PAX:160
Departing Airport: LEPA
Destination Airport: EIDW
Alternate Airport:EGCC
Online: VATSIM
Route:GALAT UN861 TOU UY120 CHALA UM184 CNA UN863 MANAK UT183 TIRAV UY110 UPALO UN862 BHD UN26 STU UM17 VATRY
Flight Level:F360
No Slew and time accel
No pause
Crash detect
Detect pilot in Cockpit between each 30 and 45 minutes
09:26 Zero fuel Weight: 126498 Lbs, Fuel Weight: 24069 Lbs
09:26 VATSIM:LEPA 080900Z 00000KT 9999 FEW020 22/15 Q1021 NOSIG
09:26 VATSIM:EIDW 080900Z 26009KT 9000 BKN004 BKN010 BKN030 12/11 Q1020 BECMG BKN008
09:27 Parking Brakes off
09:31 Take-off
09:31 Take off Weight: 149958 Lbs
09:31 Wind: 000º @ 000 Knots Heading: 235º
09:31 POS N39º 33´ 05´´ E002º 43´ 13´´
09:31 Flaps:3 at 163 Knots
09:32 Gear Up: 164 Knots
09:32 Flaps:2 at 173 Knots
09:32 Flaps:1 at 182 Knots
09:32 Flaps:0 at 208 Knots
09:46 Wind:308º@022 Knots Heading: 348º Ground Speed: 451 Knots Altitude 28897 ft
09:52 TOC
09:52 Fuel Weight: 19423 Lb
10:01 Wind:305º@038 Knots Heading: 349º Ground Speed: 436 Knots Altitude 36253 ft
10:16 Wind:300º@037 Knots Heading: 331º Ground Speed: 421 Knots Altitude 36302 ft
10:31 Wind:316º@039 Knots Heading: 314º Ground Speed: 422 Knots Altitude 36289 ft
10:46 Wind:315º@041 Knots Heading: 352º Ground Speed: 428 Knots Altitude 36259 ft
11:01 Wind:312º@037 Knots Heading: 356º Ground Speed: 434 Knots Altitude 36256 ft
11:16 Wind:316º@040 Knots Heading: 331º Ground Speed: 422 Knots Altitude 36233 ft
11:31 Wind:311º@047 Knots Heading: 325º Ground Speed: 414 Knots Altitude 36220 ft
11:31 TOD
11:31 Fuel Weight: 10154 Lb
11:46 Wind:275º@011 Knots Heading: 342º Ground Speed: 259 Knots Altitude 8192 ft
11:46 Flaps:1 at 239 Knots
11:48 Flaps:2 at 240 Knots
11:49 Flaps:3 at 227 Knots
11:50 Flaps:4 at 186 Knots
11:50 Gear Down: 152 Knots
11:50 Flaps:5 at 152 Knots
11:51 Flaps:6 at 134 Knots
11:51 Flaps:7 at 128 Knots
11:52 Flaps:8 at 142 Knots
11:56 TouchDown:Rate -111 ft/min Speed: 128 Knots
11:56 VATSIM:EIDW 081130Z 27007KT 9999 SCT008 SCT018 BKN030 13/11 Q1021 TEMPO BKN008
11:56 Land
11:56 Wind:277º@007 Knots
11:56 Heading: 277º
11:56 Flight Duration: 02:25
11:56 Landing Weight: 135160 Lbs
11:56 POS N53º 25´ 16´´ W006º 16´ 09´´
11:59 Parking brakes on
11:59 Block to Block Duration: 02:32
11:59 Final Fuel: 8434 Lbls
11:59 Spent Fuel: 15634 Lbls
11:59 Flight Length: 953 NM
11:59 TOD Land Length: 116 NM

Exportar CSV

Powered by Drupal - Modified by Danger4k